모두
Wiluna Airport (Wiluna, Western Australia) WUN 기상
|
Wiluna, Western Australia (WUN / YWLU)
맑은 하늘
가벼운 바람 |
|
14 °C |
WUN 터미널 지역 예측
| Date | Time (AWST) | Flight Rules | Wind Dir. | Speed | Type | Height AGL (ft) | Visibility | Remarks | ||||||
|---|---|---|---|---|---|---|---|---|---|---|---|---|---|---|
최근 WUN METAR 이력
| Date | Time (AWST) | Flight Rules | Wind Dir. | Speed | Type | Height AGL (ft) | Visibility | Temp (°C) | Temp (°F) | Dew Point (°C) | Dew Point (°F) | Rel. Humid. | Pressure | Density Altitude | Remarks |
|---|---|---|---|---|---|---|---|---|---|---|---|---|---|---|---|
| 05-5월 | 23:00 | VFR | 130° | 8 kt | 10000 meters | 14° | 57° | 5° | 41° | 55% | 1024 mb | 1,448 ft | |||
| 05-5월 | 22:00 | VFR | 130° | 8 kt | 10000 meters | 14° | 57° | 5° | 41° | 55% | 1024 mb | 1,448 ft | |||
| 05-5월 | 21:00 | VFR | 130° | 8 kt | 10000 meters | 16° | 60° | 5° | 41° | 48% | 1024 mb | 1,688 ft | |||
| 05-5월 | 20:00 | VFR | 120° | 9 kt | 10000 meters | 17° | 62° | 4° | 39° | 42% | 1024 mb | 1,808 ft | |||
| 05-5월 | 19:00 | VFR | 130° | 8 kt | 10000 meters | 18° | 64° | 4° | 39° | 39% | 1023 mb | 1,957 ft | |||
| 05-5월 | 18:00 | VFR | 130° | 8 kt | 10000 meters | 19° | 66° | 4° | 39° | 37% | 1023 mb | 2,077 ft | |||
| 05-5월 | 17:00 | VFR | 130° | 11 kt | 10000 meters | 21° | 69° | 3° | 37° | 30% | 1022 mb | 2,347 ft | |||
| 05-5월 | 16:00 | VFR | 130° | 10 kt | 10000 meters | 22° | 71° | 4° | 39° | 31% | 1022 mb | 2,467 ft | |||
| 05-5월 | 15:00 | VFR | 110° | 9 kt | 10000 meters | 21° | 69° | 4° | 39° | 33% | 1022 mb | 2,347 ft | |||
| 05-5월 | 14:00 | VFR | 110° | 11 kt | 10000 meters | 22° | 71° | 4° | 39° | 31% | 1022 mb | 2,467 ft | |||
| 05-5월 | 13:00 | VFR | 90° | 11 kt | 10000 meters | 20° | 68° | 5° | 41° | 37% | 1023 mb | 2,197 ft | |||
| 05-5월 | 12:00 | VFR | 100° | 10 kt | 10000 meters | 19° | 66° | 6° | 42° | 43% | 1023 mb | 2,077 ft | |||
| 05-5월 | 11:00 | VFR | 70° | 9 kt | 10000 meters | 18° | 64° | 7° | 44° | 49% | 1024 mb | 1,928 ft | |||
| 05-5월 | 10:00 | VFR | 80° | 10 kt | 10000 meters | 17° | 62° | 7° | 44° | 52% | 1025 mb | 1,778 ft | |||
| 05-5월 | 09:00 | VFR | 70° | 11 kt | 10000 meters | 16° | 60° | 7° | 44° | 55% | 1026 mb | 1,629 ft | |||
| 05-5월 | 08:00 | VFR | 80° | 9 kt | 10000 meters | 13° | 55° | 7° | 44° | 67% | 1026 mb | 1,269 ft | |||
| 05-5월 | 07:00 | VFR | 110° | 5 kt | 10000 meters | 10° | 50° | 5° | 41° | 71% | 1025 mb | 938 ft | |||
| 05-5월 | 06:00 | VFR | 110° | 7 kt | 10000 meters | 11° | 51° | 6° | 42° | 71% | 1024 mb | 1,088 ft | |||
| 05-5월 | 05:00 | VFR | 110° | 8 kt | 10000 meters | 11° | 51° | 5° | 41° | 66% | 1024 mb | 1,088 ft | |||
| 05-5월 | 04:00 | VFR | 110° | 8 kt | 10000 meters | 11° | 51° | 5° | 41° | 66% | 1024 mb | 1,088 ft | |||
| 05-5월 | 03:00 | VFR | 130° | 9 kt | 10000 meters | 10° | 50° | 4° | 39° | 66% | 1023 mb | 997 ft | |||
| 05-5월 | 02:00 | VFR | 130° | 7 kt | 10000 meters | 11° | 51° | 4° | 39° | 62% | 1024 mb | 1,088 ft | |||
| 05-5월 | 01:00 | VFR | 130° | 6 kt | 10000 meters | 11° | 51° | 4° | 39° | 62% | 1024 mb | 1,088 ft | |||
| 05-5월 | 00:00 | VFR | 110° | 8 kt | 10000 meters | 12° | 53° | 3° | 37° | 54% | 1024 mb | 1,208 ft |
로그인
| 귀하의 브라우저는 지원되지 않습니다.. 브라우저를 업그레이드하세요 |
